Flight Track Log - Related Links

Times and Time Zones

All times are in EDT time to prevent confusion due to time zone crossing. See the SPK405 flight status page for this flight to view local times or setup timezone preferences in your user account.

Time Position Orientation Groundspeed Altitude Reporting Facility
EDT Latitude Longitude Course Direction KTS MPH feet Rate Location/Type
Wed 07:37:00 PM 36.4167 -82.0636 90° East  Level FlightAware Approximate
Wed 07:38:00 PM 36.4126 -82.0069 101° East  Level FlightAware Approximate
Wed 07:39:00 PM 36.4040 -81.9507 101° East  Level FlightAware Approximate
Wed 07:39:12 PM 36.4142 -82.0986 96° East 175 201 8,900  Level Atlanta Center
Wed 07:40:00 PM 36.3954 -81.8946 101° East  Level FlightAware Approximate
Wed 07:40:12 PM 36.4050 -82.0422 101° East 193 222 8,900  Level Atlanta Center
Wed 07:41:00 PM 36.3867 -81.8385 101° East  Level FlightAware Approximate
Wed 07:41:12 PM 36.3933 -81.9781 103° East 198 228 8,900  Level Atlanta Center
Wed 07:42:00 PM 36.3783 -81.7823 100° East  Level FlightAware Approximate
Wed 07:42:12 PM 36.3819 -81.9164 103° East 198 228 8,900  Level Atlanta Center
Wed 07:43:00 PM 36.3699 -81.7261 100° East  Level FlightAware Approximate
Wed 07:43:12 PM 36.3747 -81.8522 98° East 198 228 8,900  Level Atlanta Center
Wed 07:44:12 PM 36.3650 -81.7853 100° East 198 228 8,900  Level Atlanta Center
Wed 07:45:12 PM 36.3575 -81.7186 98° East 198 228 8,900  Level Atlanta Center
Wed 07:46:12 PM 36.3478 -81.6492 100° East 198 228 8,900  Level Atlanta Center
Wed 07:47:12 PM 36.3383 -81.5825 100° East 198 228 8,900  Level Atlanta Center
Wed 07:48:12 PM 36.3264 -81.5183 103° East 198 228 8,900  Level Atlanta Center
Wed 07:49:12 PM 36.3167 -81.4517 100° East 198 228 8,900  Level Atlanta Center
Wed 07:50:12 PM 36.3050 -81.3903 103° East 198 228 8,900  Level Atlanta Center
Wed 07:51:12 PM 36.2972 -81.3236 98° East 198 228 8,900  Level Atlanta Center
Wed 07:52:12 PM 36.2833 -81.2594 105° East 198 228 8,900  Level Atlanta Center
Wed 07:53:12 PM 36.2714 -81.1956 103° East 198 228 8,900  Level Atlanta Center
Wed 07:54:12 PM 36.2639 -81.1392 99° East 198 228 8,900 -150 Level Atlanta Center
Wed 07:55:12 PM 36.2561 -81.0725 98° East 198 228 8,600 -550 Descending Atlanta Center
Wed 07:56:12 PM 36.2481 -81.0008 98° East 203 234 7,800 -750 Descending Atlanta Center
Wed 07:57:12 PM 36.2358 -80.9267 102° East 208 239 7,100 -800 Descending Atlanta Center
Wed 07:58:12 PM 36.2233 -80.8550 102° East 213 245 6,200 -800 Descending Atlanta Center
Wed 07:59:12 PM 36.2153 -80.7833 98° East 213 245 5,500 -650 Descending Atlanta Center
Wed 08:00:12 PM 36.2028 -80.7067 101° East 213 245 4,900 -300 Descending Atlanta Center
Wed 08:01:12 PM 36.1947 -80.6400 98° East 201 231 4,900  Level Atlanta Center
Wed 08:02:12 PM 36.1886 -80.5708 96° East 191 220 4,900  Level Atlanta Center
Wed 08:03:12 PM 36.1806 -80.5094 99° East 191 220 4,900  Level Atlanta Center
Wed 08:04:12 PM 36.1708 -80.4583 103° East 186 214 4,900  Level Atlanta Center
Wed 08:05:12 PM 36.1628 -80.3944 99° East 181 208 4,900  Level Atlanta Center
Wed 08:07:00 PM 36.1536 -80.2910 96° East  Level FlightAware Approximate
Wed 08:14:00 PM 36.1000 -79.9333 90° East  Level FlightAware Approximate
Wed 08:15:00 PM 36.1013 -79.9411 90° East  Level Estimated
Wed 08:16:00 PM 36.1000 -79.9333 90° East  Level FlightAware Approximate
Wed 08:17:00 PM 36.1013 -79.9411 90° East  Level Estimated
Wed 08:18:00 PM 36.1000 -79.9333 90° East  Level FlightAware Approximate
Wed 08:19:00 PM 36.1013 -79.9411 90° East  Level Estimated
Wed 08:20:00 PM 36.1000 -79.9333 90° East  Level FlightAware Approximate
Wed 08:21:00 PM 36.1013 -79.9411 90° East  Level Estimated
Wed 08:22:00 PM 36.1000 -79.9333 90° East  Level FlightAware Approximate

Login

Don't have an account? Register now (free) for customized features, flight alerts, and more!